Thursday, March 23, 2017, 12:20 AM EDT

KSBY, Salisbury-wicomico Cty Reg

Location: Salisbury, MD, United States Lat: 38.333
Local Time: 12:20 AM EDT ( 4:20 GMT) Lon: -75.5
Time Zone: US/Eastern Elev: 52 ft

Show me the last for .
Show Decoded

2017-03-22 23:54 METAR KSBY 230354Z AUTO 35004KT 10SM CLR M01/M14 A3047 RMK AO2 SLP320 T10111139
                 TSNO $ =
2017-03-22 22:54 METAR KSBY 230254Z AUTO 36005KT 10SM CLR 00/M13 A3045 RMK AO2 SLP314 T00001133
                 51033 TSNO $ =
2017-03-22 21:54 METAR KSBY 230154Z 02006KT 10SM CLR 01/M12 A3043 RMK AO2 SLP307 T00061122 $ =
2017-03-22 20:54 METAR KSBY 230054Z 36009KT 10SM CLR 02/M13 A3039 RMK AO2 SLP294 T00221128 $ =
2017-03-22 19:54 METAR KSBY 222354Z 36007KT 10SM CLR 03/M13 A3035 RMK AO2 SLP280 T00331133 10094
                 20033 53038 $ =
2017-03-22 18:54 METAR KSBY 222254Z 36011KT 10SM CLR 06/M13 A3031 RMK AO2 SLP267 T00561133 =
2017-03-22 17:54 METAR KSBY 222154Z 34013G24KT 10SM CLR 07/M13 A3027 RMK AO2 SLP253 T00721128 =
2017-03-22 16:54 METAR KSBY 222054Z 32014G20KT 10SM CLR 08/M12 A3024 RMK AO2 SLP242 T00831117
                 53014 =
2017-03-22 15:54 METAR KSBY 221954Z 35014G25KT 10SM CLR 09/M12 A3022 RMK AO2 PK WND 32028/1939
                 SLP236 T00891117 =
2017-03-22 14:54 METAR KSBY 221854Z 32017G24KT 10SM CLR 09/M10 A3020 RMK AO2 PK WND 32031/1801
                 SLP229 T00891100 =
2017-03-22 13:54 METAR KSBY 221754Z 34019G27KT 10SM CLR 09/M11 A3020 RMK AO2 PK WND 33032/1742
                 SLP228 T00891111 10100 20078 53020 =
2017-03-22 12:54 METAR KSBY 221654Z 35017G27KT 10SM CLR 09/M07 A3018 RMK AO2 PK WND 34031/1603
                 SLP220 T00941072 =
2017-03-22 11:54 METAR KSBY 221554Z 32019G28KT 10SM CLR 09/M07 A3016 RMK AO2 PK WND 34031/1517
                 SLP215 T00891067 =
2017-03-22 10:54 METAR KSBY 221454Z 34021G28KT 10SM CLR 08/M07 A3014 RMK AO2 PK WND 34034/1421
                 SLP207 T00831067 53043 =
2017-03-22 09:54 METAR KSBY 221354Z 33016G29KT 10SM CLR 08/M03 A3009 RMK AO2 PK WND 32033/1335
                 SLP190 T00831033 =
2017-03-22 08:54 METAR KSBY 221254Z 33019G24KT 10SM CLR 09/M02 A3005 RMK AO2 PK WND 31029/1241
                 SLP176 T00891022 =
2017-03-22 07:54 METAR KSBY 221154Z 34013G23KT 10SM SCT065 10/M02 A3001 RMK AO2 SLP165 60000
                 T01001022 10111 20078 53034 =
2017-03-22 06:54 METAR KSBY 221054Z 35009G18KT 10SM BKN065 11/00 A2996 RMK AO2 SLP148 T01060000 =
2017-03-22 05:54 METAR KSBY 220954Z 32006KT 10SM OVC060 11/05 A2994 RMK AO2 RAE22 SLP141 P0000
                 T01110050 =
2017-03-22 04:54 METAR KSBY 220854Z AUTO 30005KT 10SM -RA OVC065 11/06 A2991 RMK AO2 RAB52 SLP131
                 P0000 60000 T01060056 53001 TSNO =
2017-03-22 03:54 METAR KSBY 220754Z AUTO 25003KT 10SM OVC090 09/06 A2989 RMK AO2 SLP123 T00890056
                 TSNO =
2017-03-22 02:54 METAR KSBY 220654Z AUTO 00000KT 10SM FEW080 OVC090 08/06 A2990 RMK AO2 SLP125
                 T00830056 TSNO =
2017-03-22 01:54 METAR KSBY 220554Z AUTO 22003KT 10SM OVC100 08/06 A2991 RMK AO2 SLP130 T00830056
                 10106 20050 56013 TSNO =
2017-03-22 00:54 METAR KSBY 220454Z AUTO 21003KT 10SM OVC120 07/06 A2992 RMK AO2 SLP133 T00670056
                 401560050 TSNO =

Support USWX by starting your Amazon purchase here.